Terminal Aerodrome Forecast
Issued by NWS Detroit/Pontiac, MI

Home | Current Version | Previous Version | Text Only | Print | Product List | Glossary On
Versions: 1 2 3 4 5 6 7 8 9 10 11 12 13 14 15 16 17 18 19 20 21 22 23 24 25 26 27
041
FTUS43 KDTX 220803 AAA
TAFDTW
TAF AMD
KDTW 220803Z 2208/2312 VRB03KT 3/4SM BR VV004
      TEMPO 2209/2213 1/2SM FG OVC003
     FM221400 20006KT 5SM BR BKN035 BKN150
     FM221600 20010KT P6SM OVC150
     FM222200 18007KT P6SM BKN200
     FM230400 19009KT 4SM BR BKN022
     FM230800 20010KT 2SM BR BKN015=

USA.gov is the U.S. government's official web portal to all federal, state and local government web resources and services.